createdAt,value
2018-06-10T00:00:17.401Z,2.80
2018-06-10T00:02:45.449Z,3.00
2018-06-10T00:05:13.589Z,3.07
2018-06-10T00:07:41.350Z,2.53
2018-06-10T00:10:09.185Z,3.17
2018-06-10T00:15:11.916Z,2.97
2018-06-10T00:17:40.625Z,3.17
2018-06-10T00:20:08.490Z,2.93
2018-06-10T00:22:36.329Z,3.00
2018-06-10T00:25:04.319Z,2.90
2018-06-10T00:27:32.933Z,2.83
2018-06-10T00:30:00.866Z,3.00
2018-06-10T00:32:28.812Z,2.80
2018-06-10T00:35:00.428Z,3.23
2018-06-10T00:37:28.279Z,3.07
2018-06-10T00:39:59.220Z,2.83
2018-06-10T00:42:32.173Z,3.03
2018-06-10T00:45:00.159Z,3.03
2018-06-10T00:47:28.034Z,3.07
2018-06-10T00:49:56.024Z,2.90
2018-06-10T00:52:23.660Z,2.90
2018-06-10T00:54:51.607Z,3.10
2018-06-10T00:57:20.191Z,2.80
2018-06-10T00:59:47.948Z,3.67
2018-06-10T01:02:15.577Z,3.03
2018-06-10T01:04:43.456Z,3.00
2018-06-10T01:07:11.454Z,3.20
2018-06-10T01:09:39.986Z,3.40
2018-06-10T01:12:08.192Z,3.40
2018-06-10T01:14:36.462Z,3.30
2018-06-10T01:17:11.276Z,2.97
2018-06-10T01:19:39.746Z,3.27
2018-06-10T01:22:08.348Z,2.80
2018-06-10T01:24:36.979Z,3.10
2018-06-10T01:27:05.253Z,3.30
2018-06-10T01:29:33.749Z,3.20
2018-06-10T01:32:02.104Z,3.27
2018-06-10T01:34:30.211Z,2.87
2018-06-10T01:36:58.346Z,3.00
2018-06-10T01:39:26.592Z,3.10
2018-06-10T01:41:55.870Z,3.30
2018-06-10T01:44:24.538Z,3.53
2018-06-10T01:46:53.249Z,3.60
2018-06-10T01:49:21.504Z,3.50
2018-06-10T01:51:54.011Z,3.20
2018-06-10T01:54:26.831Z,3.37
2018-06-10T01:56:56.182Z,3.40
2018-06-10T02:03:45.322Z,3.30
2018-06-10T02:06:13.908Z,2.97
2018-06-10T02:08:42.598Z,3.20
2018-06-10T02:11:11.492Z,2.97
2018-06-10T02:13:40.273Z,3.07
2018-06-10T02:16:09.563Z,3.00
2018-06-10T02:18:38.149Z,3.13
2018-06-10T02:21:07.479Z,3.00
2018-06-10T02:23:36.204Z,2.90
2018-06-10T02:26:04.756Z,2.67
2018-06-10T02:28:33.240Z,3.50
2018-06-10T02:33:46.864Z,3.03
2018-06-10T02:36:16.988Z,3.07
2018-06-10T02:38:48.465Z,3.23
2018-06-10T02:41:17.833Z,3.30
2018-06-10T02:43:47.482Z,2.77
2018-06-10T02:46:16.440Z,2.97
2018-06-10T02:48:44.963Z,3.17
2018-06-10T02:51:13.724Z,3.17
2018-06-10T02:53:41.753Z,3.10
2018-06-10T02:56:10.453Z,2.90
2018-06-10T02:58:38.598Z,2.83
2018-06-10T03:01:06.520Z,2.70
2018-06-10T03:03:35.792Z,2.73
2018-06-10T03:06:04.144Z,2.80
2018-06-10T03:08:32.361Z,2.70
2018-06-10T03:11:03.235Z,2.40
2018-06-10T03:13:32.344Z,2.40
2018-06-10T03:16:00.032Z,2.40
2018-06-10T03:18:27.430Z,2.50
2018-06-10T03:20:54.840Z,2.50
2018-06-10T03:23:22.261Z,2.50
2018-06-10T03:26:21.291Z,2.10
2018-06-10T03:28:57.432Z,2.20
2018-06-10T03:31:25.297Z,2.00
2018-06-10T03:33:53.021Z,2.00
2018-06-10T03:36:23.535Z,2.00
2018-06-10T03:38:59.422Z,2.00
2018-06-10T03:41:30.576Z,2.13
2018-06-10T03:44:00.214Z,1.90
2018-06-10T03:46:30.821Z,2.20
2018-06-10T03:49:00.099Z,2.30
2018-06-10T03:51:35.594Z,2.27
2018-06-10T03:54:05.819Z,2.13
2018-06-10T03:56:35.378Z,2.10
2018-06-10T03:59:05.078Z,1.97
2018-06-10T04:01:33.982Z,2.30
2018-06-10T04:04:02.844Z,2.10
2018-06-10T04:06:34.025Z,2.30
2018-06-10T04:09:06.858Z,2.30
2018-06-10T04:11:38.848Z,2.50
2018-06-10T04:14:08.180Z,2.07
2018-06-10T04:16:40.026Z,2.00
2018-06-10T04:19:09.879Z,2.30
2018-06-10T04:21:40.818Z,2.37
2018-06-10T04:24:10.970Z,2.50
2018-06-10T04:26:40.120Z,2.30
2018-06-10T04:29:10.420Z,2.00
2018-06-10T04:31:43.742Z,2.33
2018-06-10T04:34:13.851Z,2.00
2018-06-10T04:37:46.927Z,2.20
2018-06-10T04:40:18.731Z,2.20
2018-06-10T04:45:52.054Z,1.90
2018-06-10T04:48:34.892Z,2.30
2018-06-10T04:51:10.258Z,2.20
2018-06-10T05:03:19.125Z,2.00
2018-06-10T05:13:09.045Z,1.83
2018-06-10T05:18:35.386Z,2.40
2018-06-10T05:21:20.040Z,2.13
2018-06-10T05:25:03.369Z,1.97
2018-06-10T05:27:40.820Z,1.80
2018-06-10T05:30:18.704Z,2.03
2018-06-10T05:37:16.392Z,2.47
2018-06-10T05:40:21.613Z,2.20
2018-06-10T05:50:57.921Z,2.30
2018-06-10T06:05:57.885Z,2.20
2018-06-10T06:13:41.401Z,2.10
2018-06-10T06:20:41.336Z,2.20
2018-06-10T06:26:25.315Z,2.27
2018-06-10T06:37:07.818Z,1.80
2018-06-10T06:39:48.627Z,2.00
2018-06-10T06:47:23.988Z,1.90
2018-06-10T06:50:09.244Z,1.73
2018-06-10T07:12:47.168Z,1.80
2018-06-10T07:24:10.255Z,1.70
2018-06-10T07:28:17.869Z,2.00
2018-06-10T07:37:05.276Z,1.57
2018-06-10T07:44:41.011Z,1.80
2018-06-10T07:55:51.137Z,1.60
2018-06-10T07:59:01.015Z,1.70
2018-06-10T08:15:32.161Z,1.50
2018-06-10T08:22:53.944Z,1.53
2018-06-10T08:26:04.488Z,1.40
2018-06-10T08:28:38.097Z,1.40
2018-06-10T08:31:16.137Z,1.40
2018-06-10T08:49:10.030Z,1.40
2018-06-10T09:00:01.358Z,1.67
2018-06-10T09:17:46.336Z,1.63
2018-06-10T09:43:41.232Z,1.70
2018-06-10T10:06:59.585Z,1.70
2018-06-10T11:08:20.658Z,2.00
2018-06-10T11:41:12.926Z,2.17
2018-06-10T13:00:39.008Z,1.90
2018-06-10T13:03:06.447Z,2.00
2018-06-10T13:05:33.904Z,2.10
2018-06-10T13:08:01.325Z,1.90
2018-06-10T13:10:28.781Z,2.20
2018-06-10T13:12:56.168Z,2.40
2018-06-10T13:15:23.585Z,2.30
2018-06-10T13:17:50.992Z,2.17
2018-06-10T13:20:18.431Z,2.03
2018-06-10T13:22:45.863Z,1.80
2018-06-10T13:25:13.269Z,2.07
2018-06-10T13:27:40.739Z,2.27
2018-06-10T13:30:08.125Z,1.80
2018-06-10T13:32:35.542Z,2.20
2018-06-10T13:35:03.006Z,1.90
2018-06-10T13:37:30.403Z,1.90
2018-06-10T13:39:57.801Z,2.10
2018-06-10T13:42:25.225Z,2.10
2018-06-10T13:44:52.869Z,2.10
2018-06-10T13:47:20.278Z,2.30
2018-06-10T13:49:47.676Z,2.10
2018-06-10T13:52:15.080Z,1.87
2018-06-10T13:54:42.486Z,2.00
2018-06-10T13:57:09.897Z,2.13
2018-06-10T13:59:37.289Z,2.00
2018-06-10T14:02:04.753Z,1.97
2018-06-10T14:04:32.162Z,1.90
2018-06-10T14:06:59.568Z,2.10
2018-06-10T14:09:26.945Z,2.00
2018-06-10T14:11:54.367Z,2.03
2018-06-10T14:14:21.770Z,1.90
2018-06-10T14:16:49.150Z,2.10
2018-06-10T14:19:16.566Z,2.10
2018-06-10T14:21:43.970Z,2.07
2018-06-10T14:24:11.361Z,2.10
2018-06-10T14:26:38.750Z,1.90
2018-06-10T14:29:06.199Z,2.17
2018-06-10T14:31:33.588Z,2.10
2018-06-10T14:34:01.011Z,2.17
2018-06-10T14:36:28.385Z,2.17
2018-06-10T14:38:55.853Z,2.20
2018-06-10T14:41:23.285Z,2.13
2018-06-10T14:43:50.687Z,2.00
2018-06-10T14:46:18.133Z,1.90
2018-06-10T14:48:45.512Z,1.93
2018-06-10T14:51:12.953Z,2.43
2018-06-10T14:53:40.361Z,2.13
2018-06-10T14:56:07.741Z,2.00
2018-06-10T14:58:35.158Z,2.60
2018-06-10T15:01:02.552Z,2.47
2018-06-10T15:03:29.948Z,2.57
2018-06-10T15:05:57.410Z,2.47
2018-06-10T15:08:24.843Z,2.13
2018-06-10T15:10:52.315Z,2.27
2018-06-10T15:13:19.724Z,2.17
2018-06-10T15:15:47.182Z,2.37
2018-06-10T15:18:14.577Z,2.20
2018-06-10T15:20:42.038Z,2.27
2018-06-10T15:23:09.417Z,2.50
2018-06-10T15:25:36.824Z,2.03
2018-06-10T15:28:04.269Z,2.37
2018-06-10T15:30:31.679Z,2.57
2018-06-10T15:32:59.114Z,2.20
2018-06-10T15:35:26.520Z,2.10
2018-06-10T15:37:53.973Z,2.27
2018-06-10T15:40:21.361Z,2.53
2018-06-10T15:42:48.793Z,2.00
2018-06-10T15:45:16.199Z,1.87
2018-06-10T15:47:43.586Z,1.80
2018-06-10T15:50:11.034Z,1.67
2018-06-10T15:52:38.445Z,1.57
2018-06-10T15:55:05.906Z,1.43
2018-06-10T15:57:33.333Z,1.57
2018-06-10T16:00:00.745Z,1.80
2018-06-10T16:02:28.130Z,1.67
2018-06-10T16:04:55.513Z,1.87
2018-06-10T16:07:22.944Z,1.77
2018-06-10T16:09:50.312Z,2.20
2018-06-10T16:12:17.733Z,1.70
2018-06-10T16:14:45.137Z,1.80
2018-06-10T16:17:12.542Z,1.80
2018-06-10T16:19:39.943Z,1.80
2018-06-10T16:22:07.364Z,1.80
2018-06-10T16:24:34.797Z,2.10
2018-06-10T16:27:02.364Z,1.87
2018-06-10T16:29:29.745Z,2.30
2018-06-10T16:31:57.732Z,2.07
2018-06-10T16:34:25.145Z,2.37
2018-06-10T16:36:52.550Z,2.37
2018-06-10T16:39:19.965Z,2.20
2018-06-10T16:41:47.357Z,2.13
2018-06-10T16:44:14.778Z,2.03
2018-06-10T16:46:42.168Z,2.17
2018-06-10T16:49:09.555Z,2.30
2018-06-10T16:51:36.987Z,2.33
2018-06-10T16:54:04.424Z,2.50
2018-06-10T16:56:31.913Z,2.47
2018-06-10T16:58:59.308Z,3.07
2018-06-10T17:01:26.705Z,2.43
2018-06-10T17:03:54.108Z,2.83
2018-06-10T17:06:21.498Z,2.30
2018-06-10T17:08:48.898Z,2.67
2018-06-10T17:11:16.337Z,2.80
2018-06-10T17:13:43.777Z,2.93
2018-06-10T17:16:11.169Z,2.77
2018-06-10T17:18:38.610Z,3.20
2018-06-10T17:21:05.996Z,2.97
2018-06-10T17:23:33.389Z,3.10
2018-06-10T17:26:00.810Z,3.13
2018-06-10T17:28:28.372Z,3.20
2018-06-10T17:30:55.777Z,3.23
2018-06-10T17:33:23.170Z,3.33
2018-06-10T17:35:50.557Z,3.37
2018-06-10T17:38:18.000Z,3.67
2018-06-10T17:40:45.490Z,3.50
2018-06-10T17:43:12.882Z,3.50
2018-06-10T17:45:40.278Z,3.67
2018-06-10T17:48:07.711Z,3.90
2018-06-10T17:50:35.118Z,3.70
2018-06-10T17:53:02.565Z,3.60
2018-06-10T17:55:30.046Z,4.13
2018-06-10T17:57:57.465Z,3.97
2018-06-10T18:00:24.898Z,4.27
2018-06-10T18:02:52.433Z,3.77
2018-06-10T18:05:19.828Z,3.80
2018-06-10T18:07:47.233Z,4.00
2018-06-10T18:10:14.654Z,4.40
2018-06-10T18:12:42.043Z,4.20
2018-06-10T18:15:09.468Z,4.83
2018-06-10T18:17:37.496Z,4.20
2018-06-10T18:20:05.043Z,4.00
2018-06-10T18:22:32.426Z,4.43
2018-06-10T18:24:59.895Z,4.40
2018-06-10T18:27:27.306Z,4.63
2018-06-10T18:29:54.729Z,4.40
2018-06-10T18:32:22.173Z,4.33
2018-06-10T18:34:49.570Z,4.40
2018-06-10T18:37:16.986Z,4.23
2018-06-10T18:39:44.388Z,4.43
2018-06-10T18:42:11.824Z,4.50
2018-06-10T18:44:39.222Z,4.57
2018-06-10T18:47:06.621Z,4.70
2018-06-10T18:49:34.044Z,4.63
2018-06-10T18:52:01.501Z,4.47
2018-06-10T18:54:29.018Z,4.53
2018-06-10T18:56:56.417Z,4.40
2018-06-10T18:59:23.806Z,4.60
2018-06-10T19:01:51.259Z,4.27
2018-06-10T19:04:18.645Z,4.50
2018-06-10T19:06:46.071Z,4.30
2018-06-10T19:09:13.514Z,4.00
2018-06-10T19:11:40.929Z,4.40
2018-06-10T19:14:08.380Z,4.77
2018-06-10T19:16:35.826Z,4.13
2018-06-10T19:19:03.313Z,4.20
2018-06-10T19:21:30.725Z,4.43
2018-06-10T19:23:58.122Z,4.13
2018-06-10T19:26:25.583Z,4.50
2018-06-10T19:28:53.100Z,4.13
2018-06-10T19:31:20.599Z,4.23
2018-06-10T19:33:47.992Z,4.47
2018-06-10T19:36:15.430Z,4.27
2018-06-10T19:38:42.893Z,4.53
2018-06-10T19:41:10.295Z,4.50
2018-06-10T19:43:37.736Z,4.40
2018-06-10T19:46:05.136Z,4.13
2018-06-10T19:48:32.554Z,4.27
2018-06-10T19:50:59.939Z,4.50
2018-06-10T19:53:27.705Z,4.47
2018-06-10T19:55:55.084Z,4.60
2018-06-10T19:58:22.495Z,4.80
2018-06-10T20:00:49.949Z,4.60
2018-06-10T20:03:17.344Z,5.30
2018-06-10T20:05:44.744Z,4.83
2018-06-10T20:08:12.174Z,5.70
2018-06-10T20:10:39.574Z,4.90
2018-06-10T20:13:06.976Z,5.90
2018-06-10T20:15:34.476Z,6.60
2018-06-10T20:18:01.868Z,5.87
2018-06-10T20:20:29.264Z,6.87
2018-06-10T20:22:56.677Z,7.00
2018-06-10T20:25:24.126Z,7.40
2018-06-10T20:27:51.493Z,7.63
2018-06-10T20:30:19.069Z,6.53
2018-06-10T20:32:46.456Z,6.03
2018-06-10T20:35:13.883Z,6.17
2018-06-10T20:37:41.301Z,7.30
2018-06-10T20:40:08.736Z,7.87
2018-06-10T20:42:36.178Z,7.83
2018-06-10T20:45:03.655Z,8.30
2018-06-10T20:47:31.073Z,8.07
2018-06-10T20:49:58.454Z,8.00
2018-06-10T20:52:25.904Z,8.80
2018-06-10T20:54:53.341Z,8.60
2018-06-10T20:57:21.236Z,9.53
2018-06-10T20:59:48.752Z,8.67
2018-06-10T21:02:16.168Z,8.93
2018-06-10T21:04:43.578Z,8.73
2018-06-10T21:07:11.040Z,9.90
2018-06-10T21:09:38.480Z,8.53
2018-06-10T21:12:05.932Z,7.47
2018-06-10T21:14:33.393Z,7.63
2018-06-10T21:17:00.805Z,8.90
2018-06-10T21:19:28.204Z,9.90
2018-06-10T21:21:55.621Z,10.53
2018-06-10T21:24:23.032Z,10.27
2018-06-10T21:26:50.473Z,9.93
2018-06-10T21:29:17.889Z,7.70
2018-06-10T21:31:45.296Z,9.77
2018-06-10T21:34:12.724Z,8.43
2018-06-10T21:36:40.141Z,9.27
2018-06-10T21:39:08.719Z,8.37
2018-06-10T21:41:36.390Z,8.13
2018-06-10T21:44:03.836Z,7.63
2018-06-10T21:46:31.338Z,7.90
2018-06-10T21:48:58.720Z,8.40
2018-06-10T21:51:26.217Z,8.90
2018-06-10T21:53:53.617Z,7.83
2018-06-10T21:56:21.038Z,8.80
2018-06-10T21:58:48.505Z,8.50
2018-06-10T22:01:15.902Z,8.80
2018-06-10T22:03:43.373Z,9.00
2018-06-10T22:06:10.806Z,8.70
2018-06-10T22:08:38.204Z,9.47
2018-06-10T22:11:05.620Z,7.83
2018-06-10T22:13:33.041Z,7.90
2018-06-10T22:16:00.487Z,7.83
2018-06-10T22:18:27.886Z,7.37
2018-06-10T22:20:55.418Z,7.57
2018-06-10T22:23:23.081Z,7.10
2018-06-10T22:25:50.553Z,7.20
2018-06-10T22:28:18.114Z,7.20
2018-06-10T22:30:47.658Z,7.97
2018-06-10T22:33:15.512Z,7.43
2018-06-10T22:35:43.425Z,7.73
2018-06-10T22:38:33.021Z,7.63
2018-06-10T22:41:00.454Z,7.73
2018-06-10T22:43:28.138Z,7.80
2018-06-10T22:45:55.548Z,7.57
2018-06-10T22:48:22.933Z,7.43
2018-06-10T22:50:50.339Z,7.87
2018-06-10T22:55:32.671Z,8.00
2018-06-10T22:58:00.106Z,8.20
2018-06-10T23:00:27.592Z,8.57
2018-06-10T23:02:55.051Z,8.50
2018-06-10T23:05:22.450Z,8.93
2018-06-10T23:07:49.840Z,8.47
2018-06-10T23:10:17.326Z,9.10
2018-06-10T23:12:44.709Z,9.80
2018-06-10T23:15:12.105Z,9.57
2018-06-10T23:17:39.524Z,9.77
2018-06-10T23:20:06.917Z,9.73
2018-06-10T23:22:34.358Z,9.80
2018-06-10T23:25:01.741Z,10.30
2018-06-10T23:27:29.130Z,10.43
2018-06-10T23:29:56.554Z,11.07
2018-06-10T23:32:23.930Z,11.47
2018-06-10T23:34:51.376Z,11.33
2018-06-10T23:37:18.794Z,11.70
2018-06-10T23:39:46.241Z,11.50
2018-06-10T23:42:13.634Z,11.40
2018-06-10T23:44:41.046Z,10.20
2018-06-10T23:47:08.456Z,10.10
2018-06-10T23:49:35.882Z,10.10
2018-06-10T23:52:03.325Z,9.30
2018-06-10T23:54:30.803Z,9.13
2018-06-10T23:56:58.377Z,9.00
2018-06-10T23:59:26.672Z,9.53
